Аэропорт: Курумоч. Самара

ICAO: UWWW

METAR:
2018/05/20 23:00
UWWW 202300Z 36002MPS CAVOK 11/09 Q1019 R33/CLRD60 NOSIG RMK QFE753/1004
METAR:
2018/05/20 21:21
TAF UWWW 202000Z 2021/2121 36005G10MPS 9999 SCT020 BKN100 TX20/2111Z TN11/2102Z 
      TEMPO 2021/2103 02003G08MPS 2100 BR SCT007 BKN100 
      BECMG 2103/2104 02006MPS 
      TEMPO 2104/2116 04007G13MPS